sensor_id;sensor_type;location;lat;lon;timestamp;P1;durP1;ratioP1;P2;durP2;ratioP2
51913;SDS011;37940;53.002;6.930;2022-12-19T00:03:41;44.97;;;25.05;;
51913;SDS011;37940;53.002;6.930;2022-12-19T00:06:08;40.53;;;23.70;;
51913;SDS011;37940;53.002;6.930;2022-12-19T00:08:34;37.88;;;23.33;;
51913;SDS011;37940;53.002;6.930;2022-12-19T00:11:00;41.25;;;23.98;;
51913;SDS011;37940;53.002;6.930;2022-12-19T00:13:28;37.65;;;22.65;;
51913;SDS011;37940;53.002;6.930;2022-12-19T00:15:59;43.80;;;24.60;;
51913;SDS011;37940;53.002;6.930;2022-12-19T00:18:26;42.45;;;23.88;;
51913;SDS011;37940;53.002;6.930;2022-12-19T00:20:53;41.58;;;24.02;;
51913;SDS011;37940;53.002;6.930;2022-12-19T00:23:27;40.45;;;23.80;;
51913;SDS011;37940;53.002;6.930;2022-12-19T00:25:54;44.25;;;23.88;;
51913;SDS011;37940;53.002;6.930;2022-12-19T00:28:20;42.83;;;23.27;;
51913;SDS011;37940;53.002;6.930;2022-12-19T00:30:46;45.83;;;24.67;;
51913;SDS011;37940;53.002;6.930;2022-12-19T00:33:12;46.67;;;25.10;;
51913;SDS011;37940;53.002;6.930;2022-12-19T00:35:37;42.75;;;25.33;;
51913;SDS011;37940;53.002;6.930;2022-12-19T00:38:03;44.30;;;24.60;;
51913;SDS011;37940;53.002;6.930;2022-12-19T00:40:29;42.53;;;23.52;;
51913;SDS011;37940;53.002;6.930;2022-12-19T00:42:55;45.25;;;25.40;;
51913;SDS011;37940;53.002;6.930;2022-12-19T00:45:20;41.60;;;23.95;;
51913;SDS011;37940;53.002;6.930;2022-12-19T00:47:46;43.05;;;24.10;;
51913;SDS011;37940;53.002;6.930;2022-12-19T00:50:12;40.78;;;23.20;;
51913;SDS011;37940;53.002;6.930;2022-12-19T00:52:37;40.10;;;22.90;;
51913;SDS011;37940;53.002;6.930;2022-12-19T00:55:03;37.92;;;22.23;;
51913;SDS011;37940;53.002;6.930;2022-12-19T00:57:29;40.70;;;22.83;;
51913;SDS011;37940;53.002;6.930;2022-12-19T00:59:55;42.60;;;23.45;;
51913;SDS011;37940;53.002;6.930;2022-12-19T01:02:21;39.72;;;22.70;;
51913;SDS011;37940;53.002;6.930;2022-12-19T01:04:46;40.85;;;23.73;;
51913;SDS011;37940;53.002;6.930;2022-12-19T01:07:12;38.60;;;23.40;;
51913;SDS011;37940;53.002;6.930;2022-12-19T01:09:38;42.00;;;24.13;;
51913;SDS011;37940;53.002;6.930;2022-12-19T01:12:04;38.17;;;22.25;;
51913;SDS011;37940;53.002;6.930;2022-12-19T01:14:50;39.50;;;23.17;;
51913;SDS011;37940;53.002;6.930;2022-12-19T01:17:17;40.65;;;22.88;;
51913;SDS011;37940;53.002;6.930;2022-12-19T01:19:43;42.90;;;23.60;;
51913;SDS011;37940;53.002;6.930;2022-12-19T01:22:09;39.78;;;22.63;;
51913;SDS011;37940;53.002;6.930;2022-12-19T01:24:36;45.60;;;25.02;;
51913;SDS011;37940;53.002;6.930;2022-12-19T01:27:01;42.17;;;24.00;;
51913;SDS011;37940;53.002;6.930;2022-12-19T01:29:27;48.80;;;25.38;;
51913;SDS011;37940;53.002;6.930;2022-12-19T01:31:53;45.38;;;23.95;;
51913;SDS011;37940;53.002;6.930;2022-12-19T01:34:19;42.85;;;22.73;;
51913;SDS011;37940;53.002;6.930;2022-12-19T01:36:44;41.72;;;24.00;;
51913;SDS011;37940;53.002;6.930;2022-12-19T01:39:10;42.70;;;24.52;;
51913;SDS011;37940;53.002;6.930;2022-12-19T01:41:36;47.42;;;25.27;;
51913;SDS011;37940;53.002;6.930;2022-12-19T01:44:05;42.08;;;23.73;;
51913;SDS011;37940;53.002;6.930;2022-12-19T01:46:33;44.10;;;24.08;;
51913;SDS011;37940;53.002;6.930;2022-12-19T01:49:00;46.17;;;25.02;;
51913;SDS011;37940;53.002;6.930;2022-12-19T01:51:28;44.08;;;24.30;;
51913;SDS011;37940;53.002;6.930;2022-12-19T01:54:05;46.08;;;24.58;;
51913;SDS011;37940;53.002;6.930;2022-12-19T01:56:37;46.40;;;24.88;;
51913;SDS011;37940;53.002;6.930;2022-12-19T01:59:07;43.80;;;23.58;;
51913;SDS011;37940;53.002;6.930;2022-12-19T02:01:38;44.55;;;24.48;;
51913;SDS011;37940;53.002;6.930;2022-12-19T02:04:05;42.55;;;24.00;;
51913;SDS011;37940;53.002;6.930;2022-12-19T02:06:32;41.20;;;23.85;;
51913;SDS011;37940;53.002;6.930;2022-12-19T02:08:59;48.53;;;25.88;;
51913;SDS011;37940;53.002;6.930;2022-12-19T02:11:25;47.85;;;26.15;;
51913;SDS011;37940;53.002;6.930;2022-12-19T02:13:51;44.80;;;25.73;;
51913;SDS011;37940;53.002;6.930;2022-12-19T02:19:03;44.75;;;25.48;;
51913;SDS011;37940;53.002;6.930;2022-12-19T02:24:37;42.92;;;24.25;;
51913;SDS011;37940;53.002;6.930;2022-12-19T02:37:46;44.88;;;24.92;;
51913;SDS011;37940;53.002;6.930;2022-12-19T02:40:18;47.15;;;25.20;;
51913;SDS011;37940;53.002;6.930;2022-12-19T02:42:49;46.85;;;26.48;;
51913;SDS011;37940;53.002;6.930;2022-12-19T02:45:19;51.47;;;27.95;;
51913;SDS011;37940;53.002;6.930;2022-12-19T02:47:47;48.88;;;26.67;;
51913;SDS011;37940;53.002;6.930;2022-12-19T02:50:13;51.70;;;28.02;;
51913;SDS011;37940;53.002;6.930;2022-12-19T02:55:12;59.92;;;29.80;;
51913;SDS011;37940;53.002;6.930;2022-12-19T03:00:18;57.10;;;27.73;;
51913;SDS011;37940;53.002;6.930;2022-12-19T03:05:17;64.25;;;30.27;;
51913;SDS011;37940;53.002;6.930;2022-12-19T03:15:43;72.40;;;31.42;;
51913;SDS011;37940;53.002;6.930;2022-12-19T03:18:09;65.55;;;30.38;;
51913;SDS011;37940;53.002;6.930;2022-12-19T03:20:42;69.93;;;31.15;;
51913;SDS011;37940;53.002;6.930;2022-12-19T03:23:12;67.90;;;31.73;;
51913;SDS011;37940;53.002;6.930;2022-12-19T03:25:39;74.30;;;33.00;;
51913;SDS011;37940;53.002;6.930;2022-12-19T03:28:09;72.53;;;32.08;;
51913;SDS011;37940;53.002;6.930;2022-12-19T03:30:52;85.57;;;34.22;;
51913;SDS011;37940;53.002;6.930;2022-12-19T03:33:19;67.90;;;31.83;;
51913;SDS011;37940;53.002;6.930;2022-12-19T03:35:46;80.13;;;34.60;;
51913;SDS011;37940;53.002;6.930;2022-12-19T03:38:14;78.78;;;34.55;;
51913;SDS011;37940;53.002;6.930;2022-12-19T03:40:43;70.50;;;31.65;;
51913;SDS011;37940;53.002;6.930;2022-12-19T03:43:11;78.65;;;34.75;;
51913;SDS011;37940;53.002;6.930;2022-12-19T03:48:26;89.32;;;35.83;;
51913;SDS011;37940;53.002;6.930;2022-12-19T03:53:35;96.80;;;38.03;;
51913;SDS011;37940;53.002;6.930;2022-12-19T03:56:42;91.45;;;36.50;;
51913;SDS011;37940;53.002;6.930;2022-12-19T03:59:18;75.88;;;33.17;;
51913;SDS011;37940;53.002;6.930;2022-12-19T04:01:57;77.57;;;33.25;;
51913;SDS011;37940;53.002;6.930;2022-12-19T04:04:24;83.15;;;35.80;;
51913;SDS011;37940;53.002;6.930;2022-12-19T04:06:51;89.13;;;34.88;;
51913;SDS011;37940;53.002;6.930;2022-12-19T04:09:20;92.07;;;36.67;;
51913;SDS011;37940;53.002;6.930;2022-12-19T04:11:52;92.10;;;36.88;;
51913;SDS011;37940;53.002;6.930;2022-12-19T04:14:25;92.35;;;37.50;;
51913;SDS011;37940;53.002;6.930;2022-12-19T04:17:19;100.28;;;38.35;;
51913;SDS011;37940;53.002;6.930;2022-12-19T04:20:08;99.85;;;35.70;;
51913;SDS011;37940;53.002;6.930;2022-12-19T04:25:25;98.43;;;38.30;;
51913;SDS011;37940;53.002;6.930;2022-12-19T04:27:55;110.28;;;38.67;;
51913;SDS011;37940;53.002;6.930;2022-12-19T04:30:24;97.00;;;37.70;;
51913;SDS011;37940;53.002;6.930;2022-12-19T04:32:50;112.50;;;39.92;;
51913;SDS011;37940;53.002;6.930;2022-12-19T04:35:16;105.47;;;39.47;;
51913;SDS011;37940;53.002;6.930;2022-12-19T04:37:41;94.90;;;36.95;;
51913;SDS011;37940;53.002;6.930;2022-12-19T04:40:08;115.05;;;40.33;;
51913;SDS011;37940;53.002;6.930;2022-12-19T04:42:34;97.22;;;38.65;;
51913;SDS011;37940;53.002;6.930;2022-12-19T04:45:01;103.05;;;38.70;;
51913;SDS011;37940;53.002;6.930;2022-12-19T04:47:27;108.93;;;39.65;;
51913;SDS011;37940;53.002;6.930;2022-12-19T04:49:53;89.53;;;36.33;;
51913;SDS011;37940;53.002;6.930;2022-12-19T04:52:19;85.95;;;36.45;;
51913;SDS011;37940;53.002;6.930;2022-12-19T04:54:44;93.63;;;38.80;;
51913;SDS011;37940;53.002;6.930;2022-12-19T04:57:10;96.90;;;37.28;;
51913;SDS011;37940;53.002;6.930;2022-12-19T04:59:36;109.03;;;41.42;;
51913;SDS011;37940;53.002;6.930;2022-12-19T05:02:01;121.00;;;43.45;;
51913;SDS011;37940;53.002;6.930;2022-12-19T05:04:27;83.65;;;36.72;;
51913;SDS011;37940;53.002;6.930;2022-12-19T05:06:53;102.75;;;39.78;;
51913;SDS011;37940;53.002;6.930;2022-12-19T05:09:19;108.78;;;41.92;;
51913;SDS011;37940;53.002;6.930;2022-12-19T05:11:44;81.35;;;35.25;;
51913;SDS011;37940;53.002;6.930;2022-12-19T05:14:10;106.75;;;39.95;;
51913;SDS011;37940;53.002;6.930;2022-12-19T05:16:36;101.53;;;41.55;;
51913;SDS011;37940;53.002;6.930;2022-12-19T05:19:05;113.65;;;42.95;;
51913;SDS011;37940;53.002;6.930;2022-12-19T05:21:31;116.32;;;41.83;;
51913;SDS011;37940;53.002;6.930;2022-12-19T05:23:56;130.07;;;44.88;;
51913;SDS011;37940;53.002;6.930;2022-12-19T05:26:22;91.05;;;38.35;;
51913;SDS011;37940;53.002;6.930;2022-12-19T05:28:48;127.35;;;43.55;;
51913;SDS011;37940;53.002;6.930;2022-12-19T05:31:18;128.40;;;45.13;;
51913;SDS011;37940;53.002;6.930;2022-12-19T05:33:45;126.88;;;42.75;;
51913;SDS011;37940;53.002;6.930;2022-12-19T05:36:14;128.77;;;43.33;;
51913;SDS011;37940;53.002;6.930;2022-12-19T05:38:40;100.80;;;37.65;;
51913;SDS011;37940;53.002;6.930;2022-12-19T05:41:13;117.70;;;43.00;;
51913;SDS011;37940;53.002;6.930;2022-12-19T05:43:42;132.30;;;46.17;;
51913;SDS011;37940;53.002;6.930;2022-12-19T05:46:13;106.50;;;40.92;;
51913;SDS011;37940;53.002;6.930;2022-12-19T05:48:39;129.05;;;44.53;;
51913;SDS011;37940;53.002;6.930;2022-12-19T05:51:05;98.43;;;40.10;;
51913;SDS011;37940;53.002;6.930;2022-12-19T05:53:31;120.75;;;42.92;;
51913;SDS011;37940;53.002;6.930;2022-12-19T05:56:06;127.78;;;42.70;;
51913;SDS011;37940;53.002;6.930;2022-12-19T05:58:43;119.43;;;42.10;;
51913;SDS011;37940;53.002;6.930;2022-12-19T06:01:17;132.95;;;45.53;;
51913;SDS011;37940;53.002;6.930;2022-12-19T06:03:48;130.00;;;44.95;;
51913;SDS011;37940;53.002;6.930;2022-12-19T06:06:15;120.65;;;45.33;;
51913;SDS011;37940;53.002;6.930;2022-12-19T06:08:42;135.27;;;45.70;;
51913;SDS011;37940;53.002;6.930;2022-12-19T06:11:09;104.07;;;41.15;;
51913;SDS011;37940;53.002;6.930;2022-12-19T06:13:36;131.48;;;42.65;;
51913;SDS011;37940;53.002;6.930;2022-12-19T06:16:07;122.18;;;45.92;;
51913;SDS011;37940;53.002;6.930;2022-12-19T06:18:38;117.05;;;42.55;;
51913;SDS011;37940;53.002;6.930;2022-12-19T06:21:06;111.60;;;41.97;;
51913;SDS011;37940;53.002;6.930;2022-12-19T06:23:34;129.80;;;43.55;;
51913;SDS011;37940;53.002;6.930;2022-12-19T06:26:02;110.85;;;41.80;;
51913;SDS011;37940;53.002;6.930;2022-12-19T06:28:29;103.85;;;41.95;;
51913;SDS011;37940;53.002;6.930;2022-12-19T06:30:59;92.07;;;37.70;;
51913;SDS011;37940;53.002;6.930;2022-12-19T06:33:27;90.45;;;36.80;;
51913;SDS011;37940;53.002;6.930;2022-12-19T06:36:00;110.00;;;40.22;;
51913;SDS011;37940;53.002;6.930;2022-12-19T06:38:30;119.80;;;42.20;;
51913;SDS011;37940;53.002;6.930;2022-12-19T06:40:57;115.22;;;42.22;;
51913;SDS011;37940;53.002;6.930;2022-12-19T06:43:41;134.00;;;43.88;;
51913;SDS011;37940;53.002;6.930;2022-12-19T06:46:07;114.65;;;42.15;;
51913;SDS011;37940;53.002;6.930;2022-12-19T06:48:33;91.95;;;38.70;;
51913;SDS011;37940;53.002;6.930;2022-12-19T06:50:59;129.60;;;44.95;;
51913;SDS011;37940;53.002;6.930;2022-12-19T06:53:24;118.43;;;42.38;;
51913;SDS011;37940;53.002;6.930;2022-12-19T06:55:51;99.10;;;40.10;;
51913;SDS011;37940;53.002;6.930;2022-12-19T06:58:19;100.78;;;41.92;;
51913;SDS011;37940;53.002;6.930;2022-12-19T07:00:45;99.40;;;40.00;;
51913;SDS011;37940;53.002;6.930;2022-12-19T07:03:12;113.07;;;41.80;;
51913;SDS011;37940;53.002;6.930;2022-12-19T07:05:43;75.97;;;35.33;;
51913;SDS011;37940;53.002;6.930;2022-12-19T07:08:09;105.65;;;40.45;;
51913;SDS011;37940;53.002;6.930;2022-12-19T07:10:35;109.75;;;39.17;;
51913;SDS011;37940;53.002;6.930;2022-12-19T07:13:01;79.85;;;35.13;;
51913;SDS011;37940;53.002;6.930;2022-12-19T07:15:28;86.90;;;35.63;;
51913;SDS011;37940;53.002;6.930;2022-12-19T07:17:57;73.53;;;33.42;;
51913;SDS011;37940;53.002;6.930;2022-12-19T07:20:23;90.45;;;35.40;;
51913;SDS011;37940;53.002;6.930;2022-12-19T07:22:49;91.13;;;35.42;;
51913;SDS011;37940;53.002;6.930;2022-12-19T07:25:15;63.47;;;31.77;;
51913;SDS011;37940;53.002;6.930;2022-12-19T07:27:41;64.05;;;32.83;;
51913;SDS011;37940;53.002;6.930;2022-12-19T07:30:08;61.42;;;31.65;;
51913;SDS011;37940;53.002;6.930;2022-12-19T07:32:34;89.68;;;37.20;;
51913;SDS011;37940;53.002;6.930;2022-12-19T07:35:00;60.65;;;31.13;;
51913;SDS011;37940;53.002;6.930;2022-12-19T07:37:26;93.43;;;36.67;;
51913;SDS011;37940;53.002;6.930;2022-12-19T07:39:52;89.70;;;37.20;;
51913;SDS011;37940;53.002;6.930;2022-12-19T07:42:18;71.90;;;32.25;;
51913;SDS011;37940;53.002;6.930;2022-12-19T07:44:47;102.28;;;40.08;;
51913;SDS011;37940;53.002;6.930;2022-12-19T07:47:13;103.88;;;39.45;;
51913;SDS011;37940;53.002;6.930;2022-12-19T07:49:38;116.18;;;41.00;;
51913;SDS011;37940;53.002;6.930;2022-12-19T07:52:04;78.47;;;34.35;;
51913;SDS011;37940;53.002;6.930;2022-12-19T07:54:30;88.35;;;37.65;;
51913;SDS011;37940;53.002;6.930;2022-12-19T07:56:55;91.82;;;35.97;;
51913;SDS011;37940;53.002;6.930;2022-12-19T07:59:24;93.90;;;37.90;;
51913;SDS011;37940;53.002;6.930;2022-12-19T08:01:50;72.97;;;34.00;;
51913;SDS011;37940;53.002;6.930;2022-12-19T08:04:16;70.70;;;34.65;;
51913;SDS011;37940;53.002;6.930;2022-12-19T08:06:41;90.75;;;36.22;;
51913;SDS011;37940;53.002;6.930;2022-12-19T08:09:07;62.13;;;30.90;;
51913;SDS011;37940;53.002;6.930;2022-12-19T08:11:33;70.43;;;31.60;;
51913;SDS011;37940;53.002;6.930;2022-12-19T08:13:59;83.70;;;34.08;;
51913;SDS011;37940;53.002;6.930;2022-12-19T08:16:26;66.70;;;32.00;;
51913;SDS011;37940;53.002;6.930;2022-12-19T08:18:52;90.90;;;36.50;;
51913;SDS011;37940;53.002;6.930;2022-12-19T08:21:18;89.93;;;34.03;;
51913;SDS011;37940;53.002;6.930;2022-12-19T08:23:44;60.05;;;28.60;;
51913;SDS011;37940;53.002;6.930;2022-12-19T08:26:11;79.15;;;32.72;;
51913;SDS011;37940;53.002;6.930;2022-12-19T08:28:39;71.65;;;33.28;;
51913;SDS011;37940;53.002;6.930;2022-12-19T08:31:10;81.25;;;31.38;;
51913;SDS011;37940;53.002;6.930;2022-12-19T08:33:39;112.47;;;36.17;;
51913;SDS011;37940;53.002;6.930;2022-12-19T08:36:06;99.20;;;34.20;;
51913;SDS011;37940;53.002;6.930;2022-12-19T08:38:33;76.32;;;32.00;;
51913;SDS011;37940;53.002;6.930;2022-12-19T08:41:06;77.57;;;31.77;;
51913;SDS011;37940;53.002;6.930;2022-12-19T08:43:33;73.63;;;31.92;;
51913;SDS011;37940;53.002;6.930;2022-12-19T08:45:59;81.80;;;32.20;;
51913;SDS011;37940;53.002;6.930;2022-12-19T08:48:26;66.63;;;30.50;;
51913;SDS011;37940;53.002;6.930;2022-12-19T08:50:53;77.38;;;32.63;;
51913;SDS011;37940;53.002;6.930;2022-12-19T08:53:21;68.40;;;28.80;;
51913;SDS011;37940;53.002;6.930;2022-12-19T08:55:52;107.70;;;34.88;;
51913;SDS011;37940;53.002;6.930;2022-12-19T08:58:20;66.30;;;29.98;;
51913;SDS011;37940;53.002;6.930;2022-12-19T09:00:46;53.90;;;27.10;;
51913;SDS011;37940;53.002;6.930;2022-12-19T09:03:12;67.38;;;30.38;;
51913;SDS011;37940;53.002;6.930;2022-12-19T09:05:42;70.25;;;30.38;;
51913;SDS011;37940;53.002;6.930;2022-12-19T09:08:07;57.88;;;28.88;;
51913;SDS011;37940;53.002;6.930;2022-12-19T09:10:37;44.15;;;24.25;;
51913;SDS011;37940;53.002;6.930;2022-12-19T09:13:03;57.17;;;29.15;;
51913;SDS011;37940;53.002;6.930;2022-12-19T09:15:29;50.65;;;27.35;;
51913;SDS011;37940;53.002;6.930;2022-12-19T09:17:55;68.93;;;30.52;;
51913;SDS011;37940;53.002;6.930;2022-12-19T09:20:21;53.15;;;28.35;;
51913;SDS011;37940;53.002;6.930;2022-12-19T09:22:47;59.90;;;30.42;;
51913;SDS011;37940;53.002;6.930;2022-12-19T09:25:12;49.85;;;27.67;;
51913;SDS011;37940;53.002;6.930;2022-12-19T09:27:38;75.05;;;32.97;;
51913;SDS011;37940;53.002;6.930;2022-12-19T09:30:04;49.53;;;27.38;;
51913;SDS011;37940;53.002;6.930;2022-12-19T09:32:30;56.72;;;31.77;;
51913;SDS011;37940;53.002;6.930;2022-12-19T09:34:56;57.40;;;29.75;;
51913;SDS011;37940;53.002;6.930;2022-12-19T09:37:22;65.28;;;32.60;;
51913;SDS011;37940;53.002;6.930;2022-12-19T09:39:48;62.17;;;33.60;;
51913;SDS011;37940;53.002;6.930;2022-12-19T09:47:36;93.10;;;39.42;;
51913;SDS011;37940;53.002;6.930;2022-12-19T09:50:11;64.30;;;32.88;;
51913;SDS011;37940;53.002;6.930;2022-12-19T09:53:37;76.32;;;34.67;;
51913;SDS011;37940;53.002;6.930;2022-12-19T09:56:09;58.05;;;31.63;;
51913;SDS011;37940;53.002;6.930;2022-12-19T09:58:43;61.25;;;33.47;;
51913;SDS011;37940;53.002;6.930;2022-12-19T10:01:21;82.40;;;37.30;;
51913;SDS011;37940;53.002;6.930;2022-12-19T10:03:58;59.97;;;32.88;;
51913;SDS011;37940;53.002;6.930;2022-12-19T10:06:27;71.53;;;36.72;;
51913;SDS011;37940;53.002;6.930;2022-12-19T10:08:54;66.97;;;34.85;;
51913;SDS011;37940;53.002;6.930;2022-12-19T10:16:42;51.83;;;31.17;;
51913;SDS011;37940;53.002;6.930;2022-12-19T10:33:55;58.55;;;30.02;;
51913;SDS011;37940;53.002;6.930;2022-12-19T10:36:44;53.72;;;29.73;;
51913;SDS011;37940;53.002;6.930;2022-12-19T10:42:07;56.25;;;31.15;;
51913;SDS011;37940;53.002;6.930;2022-12-19T10:44:39;50.78;;;28.25;;
51913;SDS011;37940;53.002;6.930;2022-12-19T10:47:09;70.32;;;32.83;;
51913;SDS011;37940;53.002;6.930;2022-12-19T10:49:40;47.95;;;27.48;;
51913;SDS011;37940;53.002;6.930;2022-12-19T10:52:07;52.40;;;30.45;;
51913;SDS011;37940;53.002;6.930;2022-12-19T11:04:58;38.10;;;24.27;;
51913;SDS011;37940;53.002;6.930;2022-12-19T11:07:24;44.75;;;27.10;;
51913;SDS011;37940;53.002;6.930;2022-12-19T11:09:50;58.85;;;30.00;;
51913;SDS011;37940;53.002;6.930;2022-12-19T11:12:17;45.72;;;27.15;;
51913;SDS011;37940;53.002;6.930;2022-12-19T11:14:48;47.03;;;27.63;;
51913;SDS011;37940;53.002;6.930;2022-12-19T11:17:26;36.42;;;23.80;;
51913;SDS011;37940;53.002;6.930;2022-12-19T11:20:09;35.55;;;21.98;;
51913;SDS011;37940;53.002;6.930;2022-12-19T11:22:36;39.28;;;23.65;;
51913;SDS011;37940;53.002;6.930;2022-12-19T11:25:02;37.22;;;24.02;;
51913;SDS011;37940;53.002;6.930;2022-12-19T11:27:45;37.53;;;22.90;;
51913;SDS011;37940;53.002;6.930;2022-12-19T11:32:44;36.88;;;23.65;;
51913;SDS011;37940;53.002;6.930;2022-12-19T11:35:46;41.42;;;25.35;;
51913;SDS011;37940;53.002;6.930;2022-12-19T11:38:12;52.17;;;28.77;;
51913;SDS011;37940;53.002;6.930;2022-12-19T11:40:46;38.85;;;23.50;;
51913;SDS011;37940;53.002;6.930;2022-12-19T11:43:19;50.60;;;27.08;;
51913;SDS011;37940;53.002;6.930;2022-12-19T11:45:58;32.20;;;21.83;;
51913;SDS011;37940;53.002;6.930;2022-12-19T11:48:34;37.20;;;23.63;;
51913;SDS011;37940;53.002;6.930;2022-12-19T11:54:21;33.17;;;21.23;;
51913;SDS011;37940;53.002;6.930;2022-12-19T11:56:49;39.45;;;23.30;;
51913;SDS011;37940;53.002;6.930;2022-12-19T11:59:18;33.25;;;22.30;;
51913;SDS011;37940;53.002;6.930;2022-12-19T12:05:21;44.15;;;26.35;;
51913;SDS011;37940;53.002;6.930;2022-12-19T12:22:12;33.25;;;22.20;;
51913;SDS011;37940;53.002;6.930;2022-12-19T12:28:00;54.05;;;27.75;;
51913;SDS011;37940;53.002;6.930;2022-12-19T12:36:52;33.60;;;21.80;;
51913;SDS011;37940;53.002;6.930;2022-12-19T12:39:18;42.00;;;24.33;;
51913;SDS011;37940;53.002;6.930;2022-12-19T12:41:58;33.08;;;21.30;;
51913;SDS011;37940;53.002;6.930;2022-12-19T12:44:38;34.55;;;22.48;;
51913;SDS011;37940;53.002;6.930;2022-12-19T12:47:19;33.97;;;23.10;;
51913;SDS011;37940;53.002;6.930;2022-12-19T12:52:28;28.63;;;20.20;;
51913;SDS011;37940;53.002;6.930;2022-12-19T12:55:02;27.88;;;20.00;;
51913;SDS011;37940;53.002;6.930;2022-12-19T12:57:35;34.58;;;22.35;;
51913;SDS011;37940;53.002;6.930;2022-12-19T13:00:37;30.75;;;21.02;;
51913;SDS011;37940;53.002;6.930;2022-12-19T13:03:11;30.75;;;20.30;;
51913;SDS011;37940;53.002;6.930;2022-12-19T13:08:30;26.73;;;20.40;;
51913;SDS011;37940;53.002;6.930;2022-12-19T13:16:57;29.15;;;19.60;;
51913;SDS011;37940;53.002;6.930;2022-12-19T13:19:35;28.48;;;20.00;;
51913;SDS011;37940;53.002;6.930;2022-12-19T13:24:41;25.02;;;19.38;;
51913;SDS011;37940;53.002;6.930;2022-12-19T13:32:18;32.78;;;21.75;;
51913;SDS011;37940;53.002;6.930;2022-12-19T13:34:52;38.50;;;23.30;;
51913;SDS011;37940;53.002;6.930;2022-12-19T13:42:56;36.13;;;23.60;;
51913;SDS011;37940;53.002;6.930;2022-12-19T13:45:47;31.05;;;21.08;;
51913;SDS011;37940;53.002;6.930;2022-12-19T13:48:21;26.63;;;19.02;;
51913;SDS011;37940;53.002;6.930;2022-12-19T13:50:59;27.65;;;20.17;;
51913;SDS011;37940;53.002;6.930;2022-12-19T13:53:29;36.53;;;23.73;;
51913;SDS011;37940;53.002;6.930;2022-12-19T13:55:59;35.30;;;22.67;;
51913;SDS011;37940;53.002;6.930;2022-12-19T13:58:29;24.48;;;18.35;;
51913;SDS011;37940;53.002;6.930;2022-12-19T14:01:06;33.75;;;21.42;;
51913;SDS011;37940;53.002;6.930;2022-12-19T14:03:38;27.95;;;19.08;;
51913;SDS011;37940;53.002;6.930;2022-12-19T14:06:14;26.50;;;19.65;;
51913;SDS011;37940;53.002;6.930;2022-12-19T14:08:52;30.13;;;20.48;;
51913;SDS011;37940;53.002;6.930;2022-12-19T14:11:27;23.08;;;16.33;;
51913;SDS011;37940;53.002;6.930;2022-12-19T14:13:57;23.15;;;17.80;;
51913;SDS011;37940;53.002;6.930;2022-12-19T14:16:45;23.40;;;16.45;;
51913;SDS011;37940;53.002;6.930;2022-12-19T14:19:25;22.08;;;15.88;;
51913;SDS011;37940;53.002;6.930;2022-12-19T14:21:52;25.48;;;17.70;;
51913;SDS011;37940;53.002;6.930;2022-12-19T14:24:19;20.92;;;14.95;;
51913;SDS011;37940;53.002;6.930;2022-12-19T14:26:50;23.13;;;15.88;;
51913;SDS011;37940;53.002;6.930;2022-12-19T14:29:23;17.17;;;13.75;;
51913;SDS011;37940;53.002;6.930;2022-12-19T14:31:55;22.48;;;14.95;;
51913;SDS011;37940;53.002;6.930;2022-12-19T14:34:23;21.30;;;15.15;;
51913;SDS011;37940;53.002;6.930;2022-12-19T14:36:53;20.60;;;15.25;;
51913;SDS011;37940;53.002;6.930;2022-12-19T14:39:22;21.95;;;15.07;;
51913;SDS011;37940;53.002;6.930;2022-12-19T14:42:00;22.48;;;14.63;;
51913;SDS011;37940;53.002;6.930;2022-12-19T14:44:57;23.15;;;15.20;;
51913;SDS011;37940;53.002;6.930;2022-12-19T14:47:44;22.77;;;14.88;;
51913;SDS011;37940;53.002;6.930;2022-12-19T14:53:20;21.27;;;14.00;;
51913;SDS011;37940;53.002;6.930;2022-12-19T14:55:47;20.20;;;13.90;;
51913;SDS011;37940;53.002;6.930;2022-12-19T14:58:29;19.70;;;13.95;;
51913;SDS011;37940;53.002;6.930;2022-12-19T15:00:58;20.70;;;13.65;;
51913;SDS011;37940;53.002;6.930;2022-12-19T15:03:27;17.77;;;13.73;;
51913;SDS011;37940;53.002;6.930;2022-12-19T15:06:13;20.83;;;13.85;;
51913;SDS011;37940;53.002;6.930;2022-12-19T15:08:42;19.13;;;12.47;;
51913;SDS011;37940;53.002;6.930;2022-12-19T15:11:23;22.05;;;14.55;;
51913;SDS011;37940;53.002;6.930;2022-12-19T15:14:10;17.55;;;13.35;;
51913;SDS011;37940;53.002;6.930;2022-12-19T15:16:35;17.52;;;12.60;;
51913;SDS011;37940;53.002;6.930;2022-12-19T15:19:01;16.67;;;12.07;;
51913;SDS011;37940;53.002;6.930;2022-12-19T15:21:29;15.32;;;11.13;;
51913;SDS011;37940;53.002;6.930;2022-12-19T15:23:55;15.48;;;11.82;;
51913;SDS011;37940;53.002;6.930;2022-12-19T15:26:29;14.57;;;11.27;;
51913;SDS011;37940;53.002;6.930;2022-12-19T15:28:58;15.40;;;11.82;;
51913;SDS011;37940;53.002;6.930;2022-12-19T15:31:36;17.73;;;11.25;;
51913;SDS011;37940;53.002;6.930;2022-12-19T15:34:20;15.65;;;11.05;;
51913;SDS011;37940;53.002;6.930;2022-12-19T15:36:48;20.00;;;11.32;;
51913;SDS011;37940;53.002;6.930;2022-12-19T15:39:14;21.20;;;12.70;;
51913;SDS011;37940;53.002;6.930;2022-12-19T15:41:41;17.90;;;12.25;;
51913;SDS011;37940;53.002;6.930;2022-12-19T15:44:15;17.75;;;13.65;;
51913;SDS011;37940;53.002;6.930;2022-12-19T15:47:02;16.73;;;11.82;;
51913;SDS011;37940;53.002;6.930;2022-12-19T15:49:29;17.67;;;14.05;;
51913;SDS011;37940;53.002;6.930;2022-12-19T15:51:56;18.80;;;12.77;;
51913;SDS011;37940;53.002;6.930;2022-12-19T15:54:22;17.60;;;12.30;;
51913;SDS011;37940;53.002;6.930;2022-12-19T15:56:52;18.80;;;13.13;;
51913;SDS011;37940;53.002;6.930;2022-12-19T15:59:41;15.68;;;11.40;;
51913;SDS011;37940;53.002;6.930;2022-12-19T16:02:17;18.75;;;12.73;;
51913;SDS011;37940;53.002;6.930;2022-12-19T16:04:46;15.73;;;11.80;;
51913;SDS011;37940;53.002;6.930;2022-12-19T16:07:24;16.13;;;11.15;;
51913;SDS011;37940;53.002;6.930;2022-12-19T16:09:50;15.88;;;12.10;;
51913;SDS011;37940;53.002;6.930;2022-12-19T16:12:30;17.83;;;12.30;;
51913;SDS011;37940;53.002;6.930;2022-12-19T16:15:00;16.45;;;11.43;;
51913;SDS011;37940;53.002;6.930;2022-12-19T16:17:27;21.42;;;13.07;;
51913;SDS011;37940;53.002;6.930;2022-12-19T16:19:56;17.23;;;12.43;;
51913;SDS011;37940;53.002;6.930;2022-12-19T16:22:23;18.85;;;12.52;;
51913;SDS011;37940;53.002;6.930;2022-12-19T16:24:50;20.95;;;14.65;;
51913;SDS011;37940;53.002;6.930;2022-12-19T16:27:18;17.30;;;13.27;;
51913;SDS011;37940;53.002;6.930;2022-12-19T16:29:47;18.80;;;13.55;;
51913;SDS011;37940;53.002;6.930;2022-12-19T16:32:13;19.02;;;13.50;;
51913;SDS011;37940;53.002;6.930;2022-12-19T16:34:40;16.73;;;11.95;;
51913;SDS011;37940;53.002;6.930;2022-12-19T16:37:06;19.55;;;14.05;;
51913;SDS011;37940;53.002;6.930;2022-12-19T16:39:31;19.05;;;12.70;;
51913;SDS011;37940;53.002;6.930;2022-12-19T16:41:57;17.95;;;12.95;;
51913;SDS011;37940;53.002;6.930;2022-12-19T16:44:23;19.17;;;12.70;;
51913;SDS011;37940;53.002;6.930;2022-12-19T16:46:55;18.15;;;13.20;;
51913;SDS011;37940;53.002;6.930;2022-12-19T16:49:21;19.35;;;14.02;;
51913;SDS011;37940;53.002;6.930;2022-12-19T16:51:47;18.48;;;13.65;;
51913;SDS011;37940;53.002;6.930;2022-12-19T16:54:13;18.52;;;12.73;;
51913;SDS011;37940;53.002;6.930;2022-12-19T16:59:20;19.52;;;14.35;;